createdAt,value
2022-09-28T00:00:54.698Z,11.70
2022-09-28T00:03:28.297Z,12.60
2022-09-28T00:06:02.440Z,11.90
2022-09-28T00:10:57.839Z,11.50
2022-09-28T00:13:25.263Z,11.90
2022-09-28T00:16:01.804Z,11.80
2022-09-28T00:18:29.092Z,11.70
2022-09-28T00:21:05.776Z,11.90
2022-09-28T00:23:33.512Z,11.20
2022-09-28T00:26:05.679Z,11.50
2022-09-28T00:28:33.182Z,11.70
2022-09-28T00:31:01.136Z,11.80
2022-09-28T00:33:28.623Z,12.40
2022-09-28T00:35:57.509Z,11.50
2022-09-28T00:38:30.913Z,11.30
2022-09-28T00:40:59.577Z,12.00
2022-09-28T00:43:27.007Z,11.40
2022-09-28T00:46:01.404Z,11.60
2022-09-28T00:48:32.321Z,11.50
2022-09-28T00:51:04.099Z,11.70
2022-09-28T00:53:35.013Z,11.30
2022-09-28T00:56:11.233Z,11.60
2022-09-28T00:58:45.872Z,11.20
2022-09-28T01:01:13.596Z,11.40
2022-09-28T01:03:45.237Z,11.00
2022-09-28T01:06:21.678Z,11.60
2022-09-28T01:08:52.065Z,11.90
2022-09-28T01:11:20.042Z,11.30
2022-09-28T01:13:50.061Z,11.60
2022-09-28T01:16:39.220Z,11.70
2022-09-28T01:19:43.658Z,11.50
2022-09-28T01:22:22.973Z,11.40
2022-09-28T01:25:14.162Z,11.30
2022-09-28T01:28:07.517Z,11.30
2022-09-28T01:30:50.068Z,11.60
2022-09-28T01:33:23.525Z,11.40
2022-09-28T01:36:35.022Z,11.00
2022-09-28T01:39:08.924Z,10.90
2022-09-28T01:41:40.354Z,11.40
2022-09-28T01:44:13.966Z,11.40
2022-09-28T01:46:48.271Z,10.80
2022-09-28T01:49:27.871Z,11.40
2022-09-28T01:52:02.689Z,11.40
2022-09-28T01:54:44.659Z,11.60
2022-09-28T01:57:16.400Z,11.50
2022-09-28T01:59:53.320Z,11.70
2022-09-28T02:02:26.762Z,11.20
2022-09-28T02:05:07.149Z,11.20
2022-09-28T02:07:42.761Z,11.60
2022-09-28T02:10:19.945Z,11.50
2022-09-28T02:12:51.298Z,11.20
2022-09-28T02:15:44.878Z,11.30
2022-09-28T02:18:13.231Z,11.10
2022-09-28T02:20:45.014Z,11.20
2022-09-28T02:23:12.352Z,12.20
2022-09-28T02:25:50.310Z,11.30
2022-09-28T02:28:19.372Z,11.50
2022-09-28T02:30:46.817Z,11.50
2022-09-28T02:33:43.607Z,11.40
2022-09-28T02:36:11.364Z,11.60
2022-09-28T02:38:39.420Z,11.60
2022-09-28T02:41:20.077Z,11.20
2022-09-28T02:44:04.200Z,11.80
2022-09-28T02:46:54.553Z,11.00
2022-09-28T02:49:43.253Z,11.30
2022-09-28T02:52:34.757Z,11.40
2022-09-28T02:55:44.182Z,11.60
2022-09-28T02:58:31.355Z,11.30
2022-09-28T03:01:37.373Z,11.30
2022-09-28T03:04:12.478Z,11.80
2022-09-28T03:06:47.378Z,11.50
2022-09-28T03:09:23.158Z,11.80
2022-09-28T03:11:55.644Z,11.20
2022-09-28T03:14:23.320Z,11.40
2022-09-28T03:16:54.387Z,11.80
2022-09-28T03:19:26.967Z,11.40
2022-09-28T03:24:22.615Z,11.20
2022-09-28T03:26:50.184Z,11.20
2022-09-28T03:29:17.773Z,11.30
2022-09-28T03:31:49.088Z,11.20
2022-09-28T03:44:06.479Z,11.60
2022-09-28T03:46:34.474Z,11.90
2022-09-28T03:49:06.177Z,11.60
2022-09-28T03:51:33.286Z,11.50
2022-09-28T03:54:00.786Z,11.20
2022-09-28T03:56:28.112Z,11.50
2022-09-28T03:58:55.164Z,11.20
2022-09-28T04:01:22.460Z,12.10
2022-09-28T04:03:57.273Z,11.60
2022-09-28T04:06:25.888Z,12.10
2022-09-28T04:08:53.454Z,11.30
2022-09-28T04:11:20.880Z,10.90
2022-09-28T04:13:51.983Z,11.00
2022-09-28T04:16:19.683Z,11.00
2022-09-28T04:18:58.212Z,11.00
2022-09-28T04:21:40.801Z,11.10
2022-09-28T04:24:14.518Z,11.20
2022-09-28T04:26:41.652Z,11.00
2022-09-28T04:29:16.829Z,10.90
2022-09-28T04:39:33.025Z,10.80
2022-09-28T04:42:01.172Z,10.70
2022-09-28T04:54:45.815Z,10.90
2022-09-28T04:57:13.462Z,10.90
2022-09-28T05:02:09.131Z,11.30
2022-09-28T05:07:59.425Z,11.10
2022-09-28T05:10:26.727Z,10.40
2022-09-28T05:12:53.838Z,10.90
2022-09-28T05:17:49.136Z,11.00
2022-09-28T05:25:17.773Z,11.00
2022-09-28T05:27:57.032Z,10.90
2022-09-28T05:30:46.995Z,11.00
2022-09-28T05:33:45.940Z,11.30
2022-09-28T05:36:14.060Z,11.90
2022-09-28T05:38:42.749Z,11.30
2022-09-28T05:41:09.957Z,11.50
2022-09-28T05:43:40.951Z,11.30
2022-09-28T05:46:08.267Z,11.20
2022-09-28T05:48:38.762Z,11.30
2022-09-28T05:51:05.921Z,11.20
2022-09-28T05:53:32.943Z,11.20
2022-09-28T05:56:00.549Z,10.90
2022-09-28T06:00:58.562Z,11.40
2022-09-28T06:03:26.025Z,11.80
2022-09-28T06:05:54.322Z,11.20
2022-09-28T06:08:21.648Z,11.20
2022-09-28T06:11:01.300Z,11.40
2022-09-28T06:13:29.218Z,11.50
2022-09-28T06:15:56.359Z,12.20
2022-09-28T06:18:23.821Z,11.40
2022-09-28T06:21:10.948Z,11.40
2022-09-28T06:23:48.161Z,11.40
2022-09-28T06:26:16.995Z,11.10
2022-09-28T06:28:45.284Z,11.00
2022-09-28T06:31:15.059Z,11.00
2022-09-28T06:33:48.767Z,11.60
2022-09-28T06:38:45.526Z,11.50
2022-09-28T06:41:14.730Z,11.90
2022-09-28T06:43:43.401Z,12.40
2022-09-28T06:46:14.220Z,11.70
2022-09-28T06:48:50.373Z,12.50
2022-09-28T06:54:01.688Z,11.50
2022-09-28T06:56:40.521Z,12.20
2022-09-28T06:59:07.850Z,11.60
2022-09-28T07:07:34.679Z,12.40
2022-09-28T07:10:12.094Z,12.10
2022-09-28T07:13:02.620Z,12.80
2022-09-28T07:15:35.481Z,13.30
2022-09-28T07:18:05.274Z,13.00
2022-09-28T07:20:41.288Z,13.80
2022-09-28T07:23:19.409Z,14.00
2022-09-28T07:26:28.296Z,14.60
2022-09-28T07:31:58.740Z,15.10
2022-09-28T07:34:58.155Z,14.90
2022-09-28T07:37:46.602Z,17.00
2022-09-28T07:40:32.906Z,15.10
2022-09-28T07:43:06.815Z,15.60
2022-09-28T07:45:36.529Z,15.70
2022-09-28T07:48:04.779Z,15.80
2022-09-28T07:50:35.296Z,16.00
2022-09-28T07:53:24.952Z,15.90
2022-09-28T07:56:10.339Z,15.70
2022-09-28T07:58:43.874Z,15.50
2022-09-28T08:01:26.070Z,15.10
2022-09-28T08:03:56.313Z,14.90
2022-09-28T08:06:23.814Z,14.70
2022-09-28T08:08:52.854Z,14.70
2022-09-28T08:11:21.336Z,15.30
2022-09-28T08:14:07.060Z,15.60
2022-09-28T08:16:54.344Z,16.40
2022-09-28T08:20:02.095Z,15.80
2022-09-28T08:22:32.310Z,15.90
2022-09-28T08:25:00.785Z,16.00
2022-09-28T08:27:29.144Z,17.50
2022-09-28T08:29:59.318Z,15.80
2022-09-28T08:32:51.295Z,16.30
2022-09-28T08:35:37.024Z,16.20
2022-09-28T08:38:23.908Z,16.10
2022-09-28T08:41:35.953Z,15.90
2022-09-28T08:44:26.871Z,15.80
2022-09-28T08:47:50.161Z,15.90
2022-09-28T08:50:39.996Z,16.00
2022-09-28T08:53:40.947Z,15.90
2022-09-28T08:56:35.371Z,15.80
2022-09-28T08:59:09.748Z,15.50
2022-09-28T09:02:04.518Z,15.60
2022-09-28T09:04:33.953Z,15.80
2022-09-28T09:07:23.164Z,15.40
2022-09-28T09:10:17.178Z,15.90
2022-09-28T09:15:21.472Z,15.10
2022-09-28T09:18:20.007Z,16.00
2022-09-28T09:20:59.141Z,14.60
2022-09-28T09:23:55.458Z,14.30
2022-09-28T09:26:40.628Z,14.40
2022-09-28T09:29:36.465Z,14.30
2022-09-28T09:32:37.255Z,14.20
2022-09-28T09:35:15.678Z,14.20
2022-09-28T09:38:22.384Z,14.20
2022-09-28T09:41:23.488Z,14.60
2022-09-28T09:44:38.980Z,15.20
2022-09-28T09:47:47.697Z,15.10
2022-09-28T09:50:35.523Z,15.70
2022-09-28T09:53:17.856Z,15.90
2022-09-28T09:55:48.025Z,16.10
2022-09-28T09:58:48.821Z,16.00
2022-09-28T10:01:34.870Z,15.90
2022-09-28T10:04:35.061Z,16.20
2022-09-28T10:07:18.882Z,16.10
2022-09-28T10:09:48.284Z,15.50
2022-09-28T10:12:26.894Z,15.50
2022-09-28T10:14:56.119Z,15.00
2022-09-28T10:17:27.671Z,15.20
2022-09-28T10:20:20.646Z,15.60
2022-09-28T10:23:02.057Z,15.10
2022-09-28T10:25:33.802Z,15.30
2022-09-28T10:28:03.027Z,15.30
2022-09-28T10:30:34.955Z,15.60
2022-09-28T10:35:43.617Z,15.60
2022-09-28T10:38:18.632Z,15.40
2022-09-28T10:41:09.516Z,15.50
2022-09-28T10:44:08.863Z,15.70
2022-09-28T10:47:04.419Z,16.00
2022-09-28T10:49:47.192Z,16.10
2022-09-28T10:52:41.579Z,16.30
2022-09-28T10:55:20.902Z,15.60
2022-09-28T10:57:48.572Z,15.50
2022-09-28T11:00:39.409Z,15.70
2022-09-28T11:03:18.846Z,15.70
2022-09-28T11:05:56.958Z,15.30
2022-09-28T11:08:36.199Z,15.40
2022-09-28T11:13:37.831Z,15.90
2022-09-28T11:16:07.532Z,15.30
2022-09-28T11:18:38.196Z,15.60
2022-09-28T11:21:15.463Z,15.70
2022-09-28T11:24:07.283Z,15.70
2022-09-28T11:26:44.781Z,15.90
2022-09-28T11:29:43.623Z,15.60
2022-09-28T11:32:40.116Z,15.70
2022-09-28T11:35:51.642Z,15.50
2022-09-28T11:38:35.462Z,15.30
2022-09-28T11:41:50.097Z,15.00
2022-09-28T11:44:33.214Z,14.90
2022-09-28T11:47:46.020Z,14.70
2022-09-28T11:52:56.191Z,14.60
2022-09-28T11:56:08.656Z,14.90
2022-09-28T11:58:53.386Z,14.70
2022-09-28T12:01:51.544Z,14.80
2022-09-28T12:05:14.909Z,14.90
2022-09-28T12:08:00.738Z,14.60
2022-09-28T12:11:13.053Z,15.30
2022-09-28T12:14:15.340Z,14.70
2022-09-28T12:17:05.694Z,14.60
2022-09-28T12:19:55.385Z,15.00
2022-09-28T12:22:28.914Z,15.30
2022-09-28T12:24:58.321Z,15.20
2022-09-28T12:27:38.681Z,15.40
2022-09-28T12:30:19.378Z,15.70
2022-09-28T12:33:03.875Z,15.20
2022-09-28T12:35:45.986Z,16.20
2022-09-28T12:38:25.117Z,16.10
2022-09-28T12:41:07.399Z,15.70
2022-09-28T12:44:06.318Z,15.80
2022-09-28T12:46:38.205Z,15.60
2022-09-28T12:52:24.919Z,15.40
2022-09-28T12:55:13.179Z,16.20
2022-09-28T12:57:58.287Z,16.20
2022-09-28T13:00:37.991Z,15.80
2022-09-28T13:03:35.056Z,15.90
2022-09-28T13:06:17.748Z,15.90
2022-09-28T13:09:20.266Z,15.90
2022-09-28T13:12:19.666Z,15.60
2022-09-28T13:15:23.540Z,15.30
2022-09-28T13:17:57.780Z,15.20
2022-09-28T13:23:29.670Z,14.30
2022-09-28T13:26:11.080Z,14.80
2022-09-28T13:28:38.955Z,14.50
2022-09-28T13:31:07.213Z,14.50
2022-09-28T13:33:40.115Z,14.30
2022-09-28T13:36:26.226Z,14.60
2022-09-28T13:38:55.782Z,14.40
2022-09-28T13:41:28.979Z,14.40
2022-09-28T13:44:23.878Z,14.70
2022-09-28T13:47:10.167Z,14.80
2022-09-28T13:50:02.426Z,14.40
2022-09-28T13:52:29.746Z,14.40
2022-09-28T13:55:24.948Z,14.10
2022-09-28T13:58:04.562Z,14.20
2022-09-28T14:00:47.279Z,14.50
2022-09-28T14:03:52.480Z,14.70
2022-09-28T14:06:33.481Z,15.00
2022-09-28T14:09:09.163Z,14.90
2022-09-28T14:11:36.815Z,14.80
2022-09-28T14:14:24.248Z,15.00
2022-09-28T14:17:13.321Z,14.60
2022-09-28T14:19:42.422Z,14.50
2022-09-28T14:22:47.241Z,14.60
2022-09-28T14:25:46.632Z,14.80
2022-09-28T14:28:31.668Z,14.60
2022-09-28T14:31:06.550Z,15.70
2022-09-28T14:33:34.540Z,14.70
2022-09-28T14:36:08.535Z,14.10
2022-09-28T14:39:03.919Z,14.00
2022-09-28T14:41:41.015Z,14.00
2022-09-28T14:44:09.512Z,14.40
2022-09-28T14:46:47.678Z,13.40
2022-09-28T14:49:20.210Z,14.00
2022-09-28T14:51:47.365Z,14.00
2022-09-28T14:54:21.344Z,14.30
2022-09-28T14:56:54.422Z,14.30
2022-09-28T14:59:36.204Z,14.50
2022-09-28T15:02:13.408Z,14.20
2022-09-28T15:05:02.329Z,14.10
2022-09-28T15:07:43.466Z,13.90
2022-09-28T15:10:32.473Z,13.60
2022-09-28T15:13:01.941Z,13.50
2022-09-28T15:15:37.066Z,13.50
2022-09-28T15:18:13.233Z,13.00
2022-09-28T15:20:42.022Z,13.10
2022-09-28T15:23:24.601Z,13.40
2022-09-28T15:25:53.192Z,12.70
2022-09-28T15:28:22.799Z,13.10
2022-09-28T15:30:50.285Z,12.90
2022-09-28T15:33:47.270Z,13.00
2022-09-28T15:36:28.873Z,12.70
2022-09-28T15:39:04.660Z,12.00
2022-09-28T15:41:33.360Z,12.90
2022-09-28T15:44:32.956Z,12.50
2022-09-28T15:47:16.452Z,12.60
2022-09-28T15:50:05.194Z,12.30
2022-09-28T15:53:05.709Z,12.20
2022-09-28T15:55:37.312Z,12.20
2022-09-28T15:58:26.336Z,12.40
2022-09-28T16:01:20.374Z,11.80
2022-09-28T16:03:47.760Z,12.20
2022-09-28T16:06:17.130Z,12.00
2022-09-28T16:08:50.586Z,12.10
2022-09-28T16:11:27.768Z,11.70
2022-09-28T16:14:01.802Z,11.90
2022-09-28T16:16:50.174Z,12.10
2022-09-28T16:19:30.248Z,12.60
2022-09-28T16:22:01.938Z,12.00
2022-09-28T16:24:36.199Z,12.10
2022-09-28T16:27:07.877Z,12.00
2022-09-28T16:29:41.357Z,11.70
2022-09-28T16:32:26.784Z,11.30
2022-09-28T16:35:15.069Z,11.80
2022-09-28T16:37:45.080Z,11.80
2022-09-28T16:40:12.836Z,11.50
2022-09-28T16:42:48.643Z,11.40
2022-09-28T16:45:21.627Z,11.60
2022-09-28T16:50:21.890Z,11.30
2022-09-28T16:53:37.079Z,11.50
2022-09-28T16:56:06.186Z,12.10
2022-09-28T16:58:33.785Z,11.90
2022-09-28T17:01:01.369Z,11.70
2022-09-28T17:08:25.667Z,11.70
2022-09-28T17:11:18.975Z,11.30
2022-09-28T17:13:47.124Z,9.40
2022-09-28T17:16:43.562Z,11.20
2022-09-28T17:19:28.667Z,11.80
2022-09-28T17:24:24.030Z,11.40
2022-09-28T17:26:52.419Z,11.50
2022-09-28T17:29:19.911Z,11.60
2022-09-28T17:31:47.800Z,11.50
2022-09-28T17:34:16.686Z,11.80
2022-09-28T17:36:45.126Z,11.30
2022-09-28T17:39:14.571Z,11.20
2022-09-28T17:41:41.921Z,11.20
2022-09-28T17:44:09.883Z,10.90
2022-09-28T17:46:46.317Z,11.10
2022-09-28T17:49:14.176Z,10.10
2022-09-28T17:51:41.354Z,10.50
2022-09-28T17:54:09.037Z,10.30
2022-09-28T17:56:37.252Z,10.30
2022-09-28T17:59:07.234Z,10.80
2022-09-28T18:01:37.853Z,10.50
2022-09-28T18:04:08.190Z,10.90
2022-09-28T18:06:37.453Z,10.40
2022-09-28T18:09:05.597Z,11.60
2022-09-28T18:11:33.805Z,10.40
2022-09-28T18:14:01.168Z,10.90
2022-09-28T18:16:29.110Z,10.30
2022-09-28T18:26:20.302Z,10.30
2022-09-28T18:28:55.094Z,10.30
2022-09-28T18:31:22.722Z,10.00
2022-09-28T18:36:17.374Z,9.60
2022-09-28T18:41:15.947Z,10.50
2022-09-28T18:43:51.542Z,10.10
2022-09-28T18:46:19.257Z,9.90
2022-09-28T18:48:47.752Z,9.40
2022-09-28T18:51:15.286Z,10.00
2022-09-28T18:56:18.233Z,10.10
2022-09-28T18:58:46.358Z,9.80
2022-09-28T19:01:29.951Z,9.80
2022-09-28T19:04:03.220Z,9.90
2022-09-28T19:06:31.805Z,10.60
2022-09-28T19:08:59.493Z,10.00
2022-09-28T19:11:27.514Z,10.10
2022-09-28T19:13:55.912Z,10.30
2022-09-28T19:16:28.985Z,10.00
2022-09-28T19:18:57.918Z,10.10
2022-09-28T19:21:26.740Z,10.40
2022-09-28T19:23:55.970Z,9.90
2022-09-28T19:26:26.121Z,9.90
2022-09-28T19:28:55.133Z,10.10
2022-09-28T19:33:50.436Z,10.10
2022-09-28T19:36:24.018Z,9.90
2022-09-28T19:38:52.957Z,10.30
2022-09-28T19:41:43.770Z,10.30
2022-09-28T19:44:26.720Z,10.10
2022-09-28T19:47:00.445Z,10.20
2022-09-28T19:49:29.216Z,10.20
2022-09-28T19:52:12.079Z,10.50
2022-09-28T19:54:41.277Z,10.10
2022-09-28T19:57:10.567Z,10.20
2022-09-28T19:59:37.929Z,10.00
2022-09-28T20:02:07.135Z,10.10
2022-09-28T20:04:34.803Z,10.30
2022-09-28T20:07:02.390Z,10.60
2022-09-28T20:09:29.630Z,10.10
2022-09-28T20:11:57.217Z,9.90
2022-09-28T20:14:25.878Z,10.40
2022-09-28T20:21:50.886Z,10.70
2022-09-28T20:24:18.457Z,10.40
2022-09-28T20:26:46.184Z,10.50
2022-09-28T20:29:13.457Z,10.30
2022-09-28T20:31:40.600Z,10.30
2022-09-28T20:34:09.146Z,10.40
2022-09-28T20:39:04.665Z,7.30
2022-09-28T20:41:36.689Z,10.40
2022-09-28T20:44:06.516Z,10.50
2022-09-28T20:46:36.400Z,10.40
2022-09-28T20:49:04.622Z,10.40
2022-09-28T20:51:31.997Z,10.30
2022-09-28T20:53:59.907Z,10.50
2022-09-28T20:56:37.758Z,10.40
2022-09-28T20:59:11.720Z,10.80
2022-09-28T21:01:39.333Z,11.10
2022-09-28T21:04:08.496Z,10.40
2022-09-28T21:06:37.786Z,10.40
2022-09-28T21:09:06.806Z,10.60
2022-09-28T21:11:35.680Z,10.70
2022-09-28T21:14:05.206Z,10.60
2022-09-28T21:16:34.352Z,10.50
2022-09-28T21:19:01.758Z,10.50
2022-09-28T21:23:57.946Z,11.00
2022-09-28T21:26:27.657Z,10.80
2022-09-28T21:28:59.491Z,10.70
2022-09-28T21:31:30.600Z,10.90
2022-09-28T21:33:58.397Z,10.80
2022-09-28T21:38:56.074Z,11.40
2022-09-28T21:41:26.312Z,10.70
2022-09-28T21:46:21.224Z,10.30
2022-09-28T21:48:53.457Z,10.80
2022-09-28T21:56:16.783Z,10.80
2022-09-28T21:58:43.777Z,10.50
2022-09-28T22:01:15.410Z,10.70
2022-09-28T22:03:44.250Z,10.30
2022-09-28T22:06:12.158Z,10.40
2022-09-28T22:08:39.679Z,11.00
2022-09-28T22:11:14.939Z,10.50
2022-09-28T22:13:50.013Z,10.30
2022-09-28T22:16:18.841Z,10.30
2022-09-28T22:18:46.711Z,10.30
2022-09-28T22:21:15.383Z,10.30
2022-09-28T22:23:42.971Z,9.90
2022-09-28T22:26:11.494Z,10.40
2022-09-28T22:28:40.033Z,10.30
2022-09-28T22:31:07.475Z,11.30
2022-09-28T22:33:35.904Z,10.00
2022-09-28T22:38:32.283Z,10.20
2022-09-28T22:43:27.416Z,10.00
2022-09-28T22:46:08.906Z,10.30
2022-09-28T22:48:37.458Z,9.80
2022-09-28T22:51:06.385Z,10.20
2022-09-28T22:53:34.296Z,9.90
2022-09-28T22:56:05.262Z,10.40
2022-09-28T22:58:36.527Z,8.80
2022-09-28T23:01:08.125Z,10.20
2022-09-28T23:03:35.487Z,9.90
2022-09-28T23:06:03.104Z,10.40
2022-09-28T23:08:32.112Z,10.00
2022-09-28T23:15:59.266Z,10.20
2022-09-28T23:18:29.835Z,10.50
2022-09-28T23:20:59.498Z,10.20
2022-09-28T23:23:27.533Z,10.10
2022-09-28T23:28:24.533Z,10.90
2022-09-28T23:30:51.772Z,10.00
2022-09-28T23:33:20.667Z,10.30
2022-09-28T23:35:47.903Z,10.60
2022-09-28T23:38:18.261Z,10.50
2022-09-28T23:40:46.804Z,9.90
2022-09-28T23:43:14.867Z,11.10
2022-09-28T23:45:45.557Z,10.10
2022-09-28T23:48:15.002Z,9.90
2022-09-28T23:50:43.487Z,10.70
2022-09-28T23:53:12.278Z,10.20
2022-09-28T23:55:39.219Z,10.70
2022-09-28T23:58:06.907Z,10.30
